Time;durP1;ratioP1;P1;durP2;ratioP2;P2;SDS_P1;SDS_P2;PMS_P1;PMS_P2;Temp;Humidity;BMP_temperature;BMP_pressure;BME280_temperature;BME280_humidity;BME280_pressure;Samples;Min_cycle;Max_cycle;Signal;HPM_P1;HPM_P2
2023/02/23 00:02:09;;;;;;;;;;;;;;;1.94;79.05;93310.34;5018617;28;19921;-50
2023/02/23 00:04:35;;;;;;;;;;;;;;;1.89;79.36;93302.91;5018849;28;19927;-49
2023/02/23 00:07:00;;;;;;;;;;;;;;;1.83;79.96;93304.91;5010308;28;20393;-49
2023/02/23 00:09:26;;;;;;;;;;;;;;;2.02;79.43;93311.31;5027578;28;19917;-52
2023/02/23 00:11:56;;;;;;;;;;;;;;;2.09;79.08;93316.28;5017957;28;19917;-49
2023/02/23 00:14:26;;;;;;;;;;;;;;;2.08;79.88;93317.53;5008015;28;20331;-50
2023/02/23 00:16:51;;;;;;;;;;;;;;;1.97;79.00;93314.81;5007506;28;19924;-50
2023/02/23 00:19:16;;;;;;;;;;;;;;;1.91;79.70;93308.59;5007596;28;19943;-50
2023/02/23 00:21:42;;;;;;;;;;;;;;;1.96;80.14;93303.19;5007843;28;19917;-50
2023/02/23 00:24:08;;;;;;;;;;;;;;;1.78;81.11;93302.94;5007415;28;19940;-51
2023/02/23 00:26:34;;;;;;;;;;;;;;;1.86;80.86;93314.81;5007910;28;19913;-51
2023/02/23 00:28:59;;;;;;;;;;;;;;;1.92;78.44;93319.03;5006633;28;19918;-52
2023/02/23 00:31:25;;;;;;;;;;;;;;;1.85;76.89;93314.06;5012111;28;19949;-50
2023/02/23 00:33:56;;;;;;;;;;;;;;;1.80;78.31;93314.09;5007644;28;19917;-51
2023/02/23 00:36:23;;;;;;;;;;;;;;;1.66;80.19;93313.09;5021845;28;20023;-50
2023/02/23 00:38:51;;;;;;;;;;;;;;;1.46;80.35;93307.88;5025326;28;20141;-51
2023/02/23 00:41:27;;;;;;;;;;;;;;;1.56;80.52;93313.84;5024562;28;19918;-50
2023/02/23 00:43:53;;;;;;;;;;;;;;;1.63;78.60;93316.78;5027453;28;19924;-51
2023/02/23 00:46:22;;;;;;;;;;;;;;;1.53;78.03;93310.88;5027174;28;19928;-50
2023/02/23 00:48:48;;;;;;;;;;;;;;;1.27;78.56;93309.59;5026942;28;20627;-51
2023/02/23 00:51:13;;;;;;;;;;;;;;;1.45;78.81;93307.13;5026887;28;19917;-52
2023/02/23 00:53:39;;;;;;;;;;;;;;;1.31;78.45;93310.09;5027246;28;19928;-49
2023/02/23 00:56:04;;;;;;;;;;;;;;;1.32;78.40;93301.41;5027331;28;20031;-50
2023/02/23 00:58:30;;;;;;;;;;;;;;;1.32;78.18;93306.88;5020953;28;19914;-50
2023/02/23 01:00:55;;;;;;;;;;;;;;;1.33;78.65;93313.78;5007736;28;20419;-53
2023/02/23 01:03:21;;;;;;;;;;;;;;;0.96;80.39;93305.06;5006869;28;19917;-52
2023/02/23 01:05:48;;;;;;;;;;;;;;;0.85;80.29;93301.56;5007109;28;20059;-51
2023/02/23 01:08:14;;;;;;;;;;;;;;;0.73;81.78;93303.53;5026636;28;20650;-50
2023/02/23 01:10:41;;;;;;;;;;;;;;;0.81;81.56;93309.22;5024809;28;19913;-51
2023/02/23 01:13:06;;;;;;;;;;;;;;;0.91;81.65;93302.34;5007285;28;20064;-50
2023/02/23 01:15:31;;;;;;;;;;;;;;;0.97;81.19;93298.41;5016418;28;20009;-51
2023/02/23 01:17:57;;;;;;;;;;;;;;;1.09;80.61;93302.63;5007173;28;20238;-49
2023/02/23 01:20:22;;;;;;;;;;;;;;;1.17;79.78;93300.19;5012147;28;19917;-50
2023/02/23 01:22:48;;;;;;;;;;;;;;;1.25;79.13;93296.50;5017950;28;19933;-52
2023/02/23 01:25:14;;;;;;;;;;;;;;;1.01;78.61;93303.59;5018417;28;19921;-51
2023/02/23 01:27:40;;;;;;;;;;;;;;;0.91;79.23;93300.34;5025159;28;19914;-49
2023/02/23 01:30:06;;;;;;;;;;;;;;;1.12;78.92;93298.19;5026823;28;20404;-51
2023/02/23 01:32:33;;;;;;;;;;;;;;;1.03;79.28;93295.69;5024672;28;20316;-50
2023/02/23 01:34:58;;;;;;;;;;;;;;;0.95;79.42;93300.88;5009607;28;19929;-50
2023/02/23 01:37:23;;;;;;;;;;;;;;;0.82;80.53;93295.16;5025414;28;19917;-50
2023/02/23 01:39:49;;;;;;;;;;;;;;;0.66;81.32;93290.41;5029075;28;20062;-51
2023/02/23 01:42:14;;;;;;;;;;;;;;;0.72;81.46;93291.16;5030528;28;19913;-53
2023/02/23 01:44:39;;;;;;;;;;;;;;;0.89;80.93;93291.94;5029005;28;20385;-52
2023/02/23 01:47:05;;;;;;;;;;;;;;;0.78;81.75;93291.91;5029995;28;19976;-49
2023/02/23 01:49:30;;;;;;;;;;;;;;;0.79;82.18;93293.41;5029890;28;19917;-50
2023/02/23 01:52:03;;;;;;;;;;;;;;;0.66;81.82;93293.13;5029087;28;19971;-49
2023/02/23 01:54:32;;;;;;;;;;;;;;;0.66;80.97;93301.25;5030127;28;19928;-51
2023/02/23 01:56:58;;;;;;;;;;;;;;;0.75;79.79;93296.38;5030362;28;19932;-51
2023/02/23 01:59:48;;;;;;;;;;;;;;;0.87;79.56;93297.13;5025470;28;19921;-51
2023/02/23 02:02:13;;;;;;;;;;;;;;;0.72;81.05;93289.19;5002044;28;20000;-49
2023/02/23 02:04:43;;;;;;;;;;;;;;;0.83;80.37;93295.88;5007631;28;20011;-50
2023/02/23 02:07:15;;;;;;;;;;;;;;;0.61;81.30;93293.81;5008739;28;20161;-51
2023/02/23 02:10:00;;;;;;;;;;;;;;;0.47;81.88;93292.81;5009880;28;19920;-50
2023/02/23 02:12:26;;;;;;;;;;;;;;;0.47;82.80;93289.34;5029032;28;20036;-52
2023/02/23 02:14:51;;;;;;;;;;;;;;;0.79;81.67;93290.69;5023406;28;20510;-51
2023/02/23 02:17:24;;;;;;;;;;;;;;;0.63;81.03;93291.38;5008840;28;19920;-51
2023/02/23 02:20:05;;;;;;;;;;;;;;;0.66;80.74;93290.41;5028354;28;19913;-49
2023/02/23 02:22:30;;;;;;;;;;;;;;;0.51;80.71;93290.59;5021812;28;19921;-50
2023/02/23 02:25:13;;;;;;;;;;;;;;;0.43;80.39;93300.44;5009692;28;20643;-52
2023/02/23 02:27:57;;;;;;;;;;;;;;;0.50;80.10;93291.06;5011195;28;19921;-51
2023/02/23 02:30:34;;;;;;;;;;;;;;;0.31;79.71;93287.28;5009578;28;19913;-51
2023/02/23 02:33:11;;;;;;;;;;;;;;;0.35;79.97;93287.78;5019061;28;19927;-51
2023/02/23 02:35:55;;;;;;;;;;;;;;;0.59;80.72;93288.88;5009194;28;20008;-52
2023/02/23 02:38:23;;;;;;;;;;;;;;;0.58;78.72;93295.56;5017261;28;20007;-53
2023/02/23 02:40:53;;;;;;;;;;;;;;;0.58;78.91;93295.56;5027855;28;19927;-50
2023/02/23 02:43:41;;;;;;;;;;;;;;;0.60;79.02;93284.97;5028061;28;19921;-53
2023/02/23 02:46:09;;;;;;;;;;;;;;;0.44;78.66;93279.44;5028892;28;19928;-51
2023/02/23 02:48:50;;;;;;;;;;;;;;;0.57;78.81;93285.91;5028603;28;20309;-50
2023/02/23 02:51:17;;;;;;;;;;;;;;;0.47;79.52;93289.34;5027918;28;20013;-51
2023/02/23 02:53:42;;;;;;;;;;;;;;;0.27;81.10;93292.19;5008621;28;20000;-49
2023/02/23 02:56:07;;;;;;;;;;;;;;;0.19;81.55;93291.19;5008998;28;20012;-51
2023/02/23 02:58:33;;;;;;;;;;;;;;;-0.01;82.61;93287.38;5014276;28;19921;-50
2023/02/23 04:18:28;;;;;;;;;;;;;;;-0.32;82.93;93306.41;5025360;28;19916;-53
2023/02/23 04:20:54;;;;;;;;;;;;;;;0.05;80.63;93308.34;5025368;28;20424;-52
2023/02/23 04:23:21;;;;;;;;;;;;;;;-0.27;82.01;93302.25;5027487;28;19964;-51
2023/02/23 04:25:47;;;;;;;;;;;;;;;-0.23;81.10;93306.22;5013134;28;20597;-54
2023/02/23 04:28:12;;;;;;;;;;;;;;;-0.29;80.60;93315.53;5007868;28;19924;-52
2023/02/23 04:30:37;;;;;;;;;;;;;;;-0.32;81.60;93309.09;5012069;28;19917;-52
2023/02/23 04:33:02;;;;;;;;;;;;;;;-0.20;80.97;93318.06;5012752;28;19923;-51
2023/02/23 04:35:30;;;;;;;;;;;;;;;-0.09;80.46;93313.47;5026852;28;19925;-51
2023/02/23 04:37:55;;;;;;;;;;;;;;;-0.04;80.52;93309.28;5024406;28;19921;-51
2023/02/23 04:40:20;;;;;;;;;;;;;;;-0.25;81.78;93316.06;5019392;28;19917;-51
2023/02/23 04:42:45;;;;;;;;;;;;;;;-0.31;81.63;93323.41;5012264;28;19913;-52
2023/02/23 04:45:11;;;;;;;;;;;;;;;-0.29;81.98;93320.97;5017969;28;20378;-52
2023/02/23 04:47:36;;;;;;;;;;;;;;;-0.15;81.78;93314.66;5021653;28;19967;-52
2023/02/23 04:50:01;;;;;;;;;;;;;;;-0.36;81.20;93322.16;5012417;28;19921;-54
2023/02/23 04:52:27;;;;;;;;;;;;;;;-0.44;81.10;93323.06;5005843;28;20208;-51
2023/02/23 04:54:52;;;;;;;;;;;;;;;-0.39;80.86;93330.53;5017603;28;19913;-53
2023/02/23 04:57:17;;;;;;;;;;;;;;;-0.39;81.48;93325.09;5013416;28;19929;-52
2023/02/23 04:59:42;;;;;;;;;;;;;;;-0.34;81.71;93324.38;5019036;28;19999;-51
2023/02/23 05:02:08;;;;;;;;;;;;;;;-0.56;82.16;93321.50;5008032;28;19999;-50
2023/02/23 05:04:36;;;;;;;;;;;;;;;-0.79;83.22;93325.97;5011821;28;19921;-51
2023/02/23 05:07:02;;;;;;;;;;;;;;;-0.67;83.21;93297.00;5009779;28;19917;-52
2023/02/23 05:09:27;;;;;;;;;;;;;;;-0.62;82.24;93324.16;5008501;28;19917;-52
2023/02/23 05:11:53;;;;;;;;;;;;;;;-0.37;82.82;93328.06;5015073;28;19921;-54
2023/02/23 05:14:18;;;;;;;;;;;;;;;-0.41;81.90;93330.97;5013263;28;20324;-52
2023/02/23 05:16:44;;;;;;;;;;;;;;;-0.67;82.62;93326.81;5020830;28;19940;-53
2023/02/23 05:19:09;;;;;;;;;;;;;;;-0.36;82.07;93329.53;5022958;28;19923;-54
2023/02/23 05:21:34;;;;;;;;;;;;;;;-0.32;81.48;93328.09;5025281;28;20044;-52
2023/02/23 05:24:00;;;;;;;;;;;;;;;-0.33;81.44;93326.63;5011374;28;19917;-52
2023/02/23 05:26:25;;;;;;;;;;;;;;;-0.58;81.06;93329.34;5014066;28;20018;-53
2023/02/23 05:28:50;;;;;;;;;;;;;;;-0.30;80.83;93333.78;5012823;28;20014;-52
2023/02/23 05:31:16;;;;;;;;;;;;;;;-0.12;80.68;93329.97;5013081;28;19921;-54
2023/02/23 05:33:41;;;;;;;;;;;;;;;0.15;79.84;93339.53;5013362;28;19921;-53
2023/02/23 05:36:10;;;;;;;;;;;;;;;0.19;79.49;93340.78;5014666;28;19940;-54
2023/02/23 05:38:36;;;;;;;;;;;;;;;-0.25;81.31;93349.38;5021824;28;20553;-54
2023/02/23 05:41:08;;;;;;;;;;;;;;;-0.34;82.73;93341.41;5010509;28;19928;-52
2023/02/23 05:43:33;;;;;;;;;;;;;;;-0.45;84.16;93352.16;5019997;28;19921;-51
2023/02/23 05:46:00;;;;;;;;;;;;;;;-0.23;84.28;93346.91;5018720;28;19972;-53
2023/02/23 05:48:25;;;;;;;;;;;;;;;-0.16;84.30;93354.63;5022015;28;19917;-53
2023/02/23 05:50:50;;;;;;;;;;;;;;;0.08;83.01;93356.25;5027326;28;20012;-52
2023/02/23 05:53:16;;;;;;;;;;;;;;;0.33;82.74;93350.00;5028671;28;20409;-53
2023/02/23 05:55:41;;;;;;;;;;;;;;;0.17;82.70;93353.38;5024049;28;19921;-54
2023/02/23 05:58:06;;;;;;;;;;;;;;;0.09;83.65;93360.47;5013238;28;20586;-51
2023/02/23 06:00:32;;;;;;;;;;;;;;;0.04;82.67;93363.88;5029506;28;20453;-53
2023/02/23 06:02:57;;;;;;;;;;;;;;;0.33;81.34;93358.13;5029659;28;19917;-52
2023/02/23 06:05:22;;;;;;;;;;;;;;;0.53;80.21;93358.00;5029747;28;19921;-54
2023/02/23 06:07:48;;;;;;;;;;;;;;;0.64;79.64;93366.22;5029809;28;19917;-54
2023/02/23 06:10:13;;;;;;;;;;;;;;;0.58;78.49;93365.44;5029950;28;19944;-54
2023/02/23 06:12:38;;;;;;;;;;;;;;;0.60;78.27;93363.00;5030120;28;20375;-52
2023/02/23 06:15:04;;;;;;;;;;;;;;;0.84;77.61;93373.47;5021712;28;19932;-54
2023/02/23 06:17:29;;;;;;;;;;;;;;;0.94;77.49;93372.00;5009839;28;19918;-54
2023/02/23 06:19:55;;;;;;;;;;;;;;;1.13;76.43;93375.78;5008566;28;20413;-51
2023/02/23 06:22:20;;;;;;;;;;;;;;;1.16;75.48;93372.09;5008655;28;19917;-53
2023/02/23 06:24:45;;;;;;;;;;;;;;;0.88;76.67;93374.72;5008547;28;19979;-55
2023/02/23 06:27:10;;;;;;;;;;;;;;;0.70;78.62;93377.84;5018664;28;20432;-51
2023/02/23 06:29:37;;;;;;;;;;;;;;;1.24;77.67;93379.28;5028644;28;19917;-54
2023/02/23 06:32:02;;;;;;;;;;;;;;;1.92;74.66;93378.16;5022442;28;19996;-52
2023/02/23 06:34:28;;;;;;;;;;;;;;;2.12;73.78;93383.38;5009488;28;19957;-53
2023/02/23 06:36:53;;;;;;;;;;;;;;;3.05;70.54;93387.88;5008276;28;19913;-52
2023/02/23 06:39:18;;;;;;;;;;;;;;;3.38;69.61;93392.44;5008501;28;19921;-54
2023/02/23 06:41:43;;;;;;;;;;;;;;;3.81;68.62;93400.91;5009873;28;20055;-54
2023/02/23 06:44:09;;;;;;;;;;;;;;;4.39;67.16;93393.28;5009024;28;19960;-52
2023/02/23 06:46:35;;;;;;;;;;;;;;;4.75;66.10;93391.94;5009495;28;19913;-53
2023/02/23 06:49:00;;;;;;;;;;;;;;;5.42;64.70;93391.19;5009659;28;19917;-53
2023/02/23 06:51:26;;;;;;;;;;;;;;;5.64;64.84;93390.91;5009328;28;19924;-54
2023/02/23 06:53:54;;;;;;;;;;;;;;;5.87;64.51;93392.84;5008954;28;20000;-55
2023/02/23 06:56:19;;;;;;;;;;;;;;;7.25;60.51;93392.56;5009414;28;19921;-54
2023/02/23 06:58:45;;;;;;;;;;;;;;;8.15;57.76;93389.41;5017196;28;19967;-55
2023/02/23 07:01:11;;;;;;;;;;;;;;;8.55;55.99;93392.78;5028820;28;19974;-56
2023/02/23 07:03:37;;;;;;;;;;;;;;;9.69;54.63;93384.00;5029238;28;19921;-55
2023/02/23 07:06:03;;;;;;;;;;;;;;;11.73;48.80;93376.66;5028773;28;20521;-56
2023/02/23 07:08:28;;;;;;;;;;;;;;;13.48;43.96;93369.47;5029102;28;19924;-55
2023/02/23 07:10:55;;;;;;;;;;;;;;;15.23;40.85;93362.34;5029196;28;20308;-55
2023/02/23 07:13:21;;;;;;;;;;;;;;;15.82;39.57;93362.66;5028797;28;20463;-56
2023/02/23 07:15:46;;;;;;;;;;;;;;;16.82;37.66;93365.63;5014744;28;19918;-55
2023/02/23 07:18:11;;;;;;;;;;;;;;;15.88;38.01;93366.59;5021073;28;19917;-54
2023/02/23 07:20:36;;;;;;;;;;;;;;;16.06;38.04;93361.63;5028710;28;19917;-55
2023/02/23 07:23:02;;;;;;;;;;;;;;;17.48;36.33;93361.81;5028879;28;19917;-55
2023/02/23 07:25:28;;;;;;;;;;;;;;;17.44;36.44;93369.91;5028591;28;20336;-56
2023/02/23 07:27:53;;;;;;;;;;;;;;;17.42;35.25;93361.41;5026834;28;19919;-55
2023/02/23 07:30:19;;;;;;;;;;;;;;;18.04;35.48;93362.78;5028775;28;19921;-56
2023/02/23 07:32:44;;;;;;;;;;;;;;;19.25;33.95;93345.22;5011211;28;19980;-54
2023/02/23 07:35:10;;;;;;;;;;;;;;;19.60;32.71;93348.75;5008271;28;19928;-56
2023/02/23 07:37:35;;;;;;;;;;;;;;;19.48;33.38;93347.31;5008838;28;20737;-55
2023/02/23 07:40:00;;;;;;;;;;;;;;;20.16;32.25;93340.09;5008212;28;19917;-55
2023/02/23 07:42:25;;;;;;;;;;;;;;;21.27;30.94;93345.53;5008770;28;20004;-55
2023/02/23 07:44:51;;;;;;;;;;;;;;;20.93;31.31;93344.38;5008716;28;19972;-56
2023/02/23 07:47:16;;;;;;;;;;;;;;;20.05;32.66;93351.38;5008512;28;19917;-56
2023/02/23 07:49:41;;;;;;;;;;;;;;;19.95;33.25;93345.16;5008311;28;20008;-56
2023/02/23 07:52:07;;;;;;;;;;;;;;;21.71;30.24;93350.66;5008505;28;20690;-56
2023/02/23 07:54:32;;;;;;;;;;;;;;;20.61;31.25;93343.34;5008095;28;19980;-56
2023/02/23 07:56:58;;;;;;;;;;;;;;;20.92;31.70;93340.13;5007967;28;19913;-56
2023/02/23 07:59:23;;;;;;;;;;;;;;;21.14;31.03;93344.16;5021600;28;19913;-57
2023/02/23 08:01:50;;;;;;;;;;;;;;;22.47;29.33;93345.34;5027977;28;20028;-57
2023/02/23 08:04:15;;;;;;;;;;;;;;;22.02;30.56;93342.44;5027418;28;19960;-56
2023/02/23 08:06:41;;;;;;;;;;;;;;;22.30;29.18;93346.66;5028073;28;19960;-56
2023/02/23 08:09:06;;;;;;;;;;;;;;;22.59;29.42;93348.75;5027546;28;19928;-57
2023/02/23 08:11:31;;;;;;;;;;;;;;;21.52;30.85;93346.19;5027987;28;19917;-57
2023/02/23 08:13:58;;;;;;;;;;;;;;;22.78;28.69;93341.91;5027756;28;20386;-57
2023/02/23 08:16:28;;;;;;;;;;;;;;;23.01;28.69;93339.50;5008756;28;19917;-56
2023/02/23 08:18:53;;;;;;;;;;;;;;;23.52;28.14;93333.38;5008140;28;20396;-57
2023/02/23 08:21:18;;;;;;;;;;;;;;;21.36;29.68;93342.50;5006268;28;19921;-56
2023/02/23 08:23:44;;;;;;;;;;;;;;;22.96;29.44;93339.94;5007725;28;20313;-56
2023/02/23 08:26:10;;;;;;;;;;;;;;;22.75;28.24;93331.91;5009434;28;19983;-55
2023/02/23 08:28:35;;;;;;;;;;;;;;;22.99;28.79;93328.16;5007807;28;20383;-56
2023/02/23 08:31:01;;;;;;;;;;;;;;;24.10;26.55;93325.34;5010109;28;20027;-56
2023/02/23 08:33:26;;;;;;;;;;;;;;;24.72;25.24;93332.09;5010200;28;19925;-56
2023/02/23 08:35:52;;;;;;;;;;;;;;;25.91;25.52;93330.97;5007389;28;19926;-56
2023/02/23 08:38:17;;;;;;;;;;;;;;;26.01;24.39;93334.88;5007490;28;19937;-56
2023/02/23 08:40:43;;;;;;;;;;;;;;;24.88;25.41;93323.59;5007888;28;19924;-56
2023/02/23 08:43:08;;;;;;;;;;;;;;;25.14;25.45;93328.16;5007574;28;20338;-56
2023/02/23 08:45:33;;;;;;;;;;;;;;;26.21;22.90;93327.13;5007434;28;19921;-55
2023/02/23 08:47:58;;;;;;;;;;;;;;;25.46;23.18;93326.56;5011322;28;19956;-56
2023/02/23 08:50:24;;;;;;;;;;;;;;;23.53;25.77;93334.81;5011792;28;19921;-56
2023/02/23 08:52:49;;;;;;;;;;;;;;;24.83;23.89;93328.34;5011719;28;19921;-56
2023/02/23 08:55:17;;;;;;;;;;;;;;;24.01;24.50;93328.47;5011426;28;19917;-56
2023/02/23 08:57:42;;;;;;;;;;;;;;;23.93;24.14;93334.47;5011410;28;20367;-55
2023/02/23 09:00:12;;;;;;;;;;;;;;;23.92;24.81;93330.22;5030543;28;19921;-56
2023/02/23 09:02:39;;;;;;;;;;;;;;;23.86;24.89;93332.03;5031439;28;19913;-56
2023/02/23 09:05:04;;;;;;;;;;;;;;;22.99;25.78;93327.41;5031191;28;19922;-56
2023/02/23 09:07:29;;;;;;;;;;;;;;;23.03;26.18;93333.22;5031283;28;20388;-56
2023/02/23 09:09:55;;;;;;;;;;;;;;;23.05;25.67;93330.50;5030652;28;19940;-56
2023/02/23 09:12:20;;;;;;;;;;;;;;;23.59;25.17;93326.63;5031049;28;19913;-56
2023/02/23 09:14:45;;;;;;;;;;;;;;;24.43;24.78;93321.78;5021464;28;20405;-57
2023/02/23 09:17:11;;;;;;;;;;;;;;;23.96;24.93;93332.47;5030717;28;19913;-56
2023/02/23 09:19:36;;;;;;;;;;;;;;;24.63;24.99;93335.97;5030707;28;19994;-56
2023/02/23 09:22:02;;;;;;;;;;;;;;;23.46;25.36;93331.00;5030990;28;19987;-56
2023/02/23 09:24:27;;;;;;;;;;;;;;;24.38;24.59;93325.09;5030869;28;19917;-56
2023/02/23 09:26:52;;;;;;;;;;;;;;;24.38;24.22;93330.72;5021119;28;19925;-56
2023/02/23 09:29:18;;;;;;;;;;;;;;;25.07;23.54;93329.28;5010741;28;19923;-56
2023/02/23 09:31:43;;;;;;;;;;;;;;;24.84;23.20;93329.78;5010341;28;19917;-56
2023/02/23 09:34:09;;;;;;;;;;;;;;;23.53;26.54;93327.09;5025684;28;20637;-56
2023/02/23 09:36:34;;;;;;;;;;;;;;;24.02;25.26;93329.91;5030415;28;20434;-56
2023/02/23 09:39:00;;;;;;;;;;;;;;;23.23;26.15;93323.63;5030512;28;19913;-56
2023/02/23 09:41:28;;;;;;;;;;;;;;;23.74;25.96;93320.97;5030564;28;20412;-57
2023/02/23 09:43:53;;;;;;;;;;;;;;;23.69;24.94;93336.25;5030605;28;19917;-56
2023/02/23 09:46:57;;;;;;;;;;;;;;;24.26;24.26;93325.31;5030332;28;20555;-56
2023/02/23 09:49:23;;;;;;;;;;;;;;;23.53;24.95;93332.72;4949517;29;19958;-56
2023/02/23 09:51:52;;;;;;;;;;;;;;;24.55;24.79;93327.19;4949614;29;19922;-56
2023/02/23 09:54:17;;;;;;;;;;;;;;;24.58;24.93;93328.72;4978648;28;19924;-56
2023/02/23 09:56:44;;;;;;;;;;;;;;;23.64;26.05;93331.81;5028937;28;19917;-55
2023/02/23 09:59:11;;;;;;;;;;;;;;;22.80;26.71;93325.13;5023992;28;19952;-56
2023/02/23 10:01:45;;;;;;;;;;;;;;;23.95;24.83;93320.44;5009324;28;20412;-56
2023/02/23 10:04:23;;;;;;;;;;;;;;;25.36;23.58;93314.13;5010202;28;19913;-57
2023/02/23 10:06:59;;;;;;;;;;;;;;;26.77;21.96;93316.97;5009203;28;19925;-56
2023/02/23 10:09:42;;;;;;;;;;;;;;;26.44;21.41;93317.28;5008705;28;19952;-56
2023/02/23 10:12:13;;;;;;;;;;;;;;;25.21;22.74;93310.03;5008626;28;19964;-56
2023/02/23 10:14:51;;;;;;;;;;;;;;;25.15;24.24;93314.72;5010364;28;20390;-56
2023/02/23 10:17:16;;;;;;;;;;;;;;;24.34;23.78;93310.81;5009075;28;19917;-56
2023/02/23 10:20:00;;;;;;;;;;;;;;;25.03;22.58;93306.53;5010129;28;19925;-56
2023/02/23 10:22:26;;;;;;;;;;;;;;;24.36;24.30;93308.06;5009744;28;19947;-56
2023/02/23 10:24:53;;;;;;;;;;;;;;;25.85;22.73;93314.53;5009797;28;19925;-56
2023/02/23 10:27:19;;;;;;;;;;;;;;;25.90;22.19;93301.97;5011505;28;19925;-56
2023/02/23 10:29:46;;;;;;;;;;;;;;;25.70;22.16;93301.28;5009681;28;19924;-56
2023/02/23 10:32:11;;;;;;;;;;;;;;;25.68;22.43;93295.53;5017320;28;19917;-55
2023/02/23 10:34:37;;;;;;;;;;;;;;;25.63;22.21;93296.78;5009456;28;20067;-56
2023/02/23 10:37:03;;;;;;;;;;;;;;;24.98;24.55;93287.97;5009589;28;19917;-56
2023/02/23 10:39:29;;;;;;;;;;;;;;;25.32;23.61;93285.69;5009760;28;19917;-55
2023/02/23 10:41:55;;;;;;;;;;;;;;;24.43;24.48;93287.19;5009486;28;19936;-56
2023/02/23 10:44:21;;;;;;;;;;;;;;;24.68;22.97;93279.03;5009445;28;20030;-56
2023/02/23 10:46:48;;;;;;;;;;;;;;;24.50;22.93;93281.13;5008225;28;20586;-55
2023/02/23 10:49:17;;;;;;;;;;;;;;;24.03;23.04;93281.34;5009701;28;19940;-56
2023/02/23 10:51:43;;;;;;;;;;;;;;;24.66;22.54;93276.16;5009643;28;20306;-56
2023/02/23 10:54:26;;;;;;;;;;;;;;;25.21;21.57;93275.41;5009048;28;19918;-56
2023/02/23 10:56:52;;;;;;;;;;;;;;;24.05;23.94;93281.44;5009345;28;19921;-55
2023/02/23 10:59:18;;;;;;;;;;;;;;;24.93;22.87;93269.41;5017449;28;19918;-54
2023/02/23 11:01:46;;;;;;;;;;;;;;;23.69;25.25;93271.41;5007765;28;19926;-56
2023/02/23 11:04:21;;;;;;;;;;;;;;;24.36;23.98;93262.94;5008149;28;20316;-56
2023/02/23 11:06:47;;;;;;;;;;;;;;;24.67;22.53;93259.91;5018591;28;19983;-56
2023/02/23 11:09:21;;;;;;;;;;;;;;;25.23;23.14;93261.38;5028301;28;19971;-55
2023/02/23 11:11:59;;;;;;;;;;;;;;;25.64;21.56;93260.75;5027778;28;19913;-56
2023/02/23 11:14:26;;;;;;;;;;;;;;;25.32;22.23;93263.81;5026445;28;19913;-54
2023/02/23 11:16:51;;;;;;;;;;;;;;;25.38;21.55;93258.38;5009143;28;19918;-56
2023/02/23 11:19:21;;;;;;;;;;;;;;;25.35;22.56;93254.06;5008050;28;19918;-55
2023/02/23 11:21:49;;;;;;;;;;;;;;;26.44;23.27;93255.00;5007638;28;19952;-56
2023/02/23 11:24:29;;;;;;;;;;;;;;;26.54;22.49;93260.97;5008985;28;20008;-56
2023/02/23 11:26:56;;;;;;;;;;;;;;;25.06;22.14;93259.31;5008646;28;20456;-56
2023/02/23 11:29:22;;;;;;;;;;;;;;;23.64;24.47;93252.16;5008765;28;19918;-56
2023/02/23 11:31:48;;;;;;;;;;;;;;;23.88;23.65;93250.34;5008128;28;19925;-55
2023/02/23 11:34:18;;;;;;;;;;;;;;;23.93;24.57;93247.06;5024049;28;19924;-55
2023/02/23 11:36:43;;;;;;;;;;;;;;;23.67;23.85;93251.59;5027074;28;19960;-56
2023/02/23 11:39:22;;;;;;;;;;;;;;;22.92;24.60;93250.38;5027408;28;20018;-55
2023/02/23 11:42:24;;;;;;;;;;;;;;;22.98;24.56;93264.72;5028431;28;19966;-55
2023/02/23 11:45:09;;;;;;;;;;;;;;;22.89;25.13;93256.56;4947358;29;19966;-56
2023/02/23 11:47:37;;;;;;;;;;;;;;;22.72;25.79;93251.56;5012204;28;20009;-55
2023/02/23 11:50:03;;;;;;;;;;;;;;;22.72;25.42;93248.75;5028289;28;19919;-55
2023/02/23 11:52:28;;;;;;;;;;;;;;;23.01;25.87;93240.22;5027006;28;20004;-56
2023/02/23 11:54:58;;;;;;;;;;;;;;;22.15;28.11;93251.69;5026817;28;19964;-56
2023/02/23 11:57:32;;;;;;;;;;;;;;;21.31;27.56;93248.16;5027035;28;20308;-55
2023/02/23 11:59:58;;;;;;;;;;;;;;;22.87;26.37;93248.75;5010156;28;19956;-55
2023/02/23 12:02:24;;;;;;;;;;;;;;;23.26;26.43;93242.72;5012616;28;20369;-55
2023/02/23 12:05:11;;;;;;;;;;;;;;;23.29;26.11;93247.09;5026828;28;20247;-55
2023/02/23 12:07:43;;;;;;;;;;;;;;;22.90;25.21;93241.13;5014032;28;20413;-55
2023/02/23 12:10:08;;;;;;;;;;;;;;;21.59;27.05;93251.69;5026482;28;19921;-55
2023/02/23 12:12:36;;;;;;;;;;;;;;;21.07;27.54;93246.94;5027622;28;19917;-55
2023/02/23 12:15:08;;;;;;;;;;;;;;;20.62;28.31;93246.63;5023009;28;20386;-54
2023/02/23 12:17:35;;;;;;;;;;;;;;;20.20;29.12;93250.66;5006892;28;19920;-55
2023/02/23 12:20:04;;;;;;;;;;;;;;;20.57;28.66;93244.22;5006639;28;19948;-55
2023/02/23 12:22:40;;;;;;;;;;;;;;;20.35;29.03;93255.69;5007420;28;19921;-53
2023/02/23 12:25:25;;;;;;;;;;;;;;;20.00;33.06;93251.56;5006725;28;20460;-54
2023/02/23 12:28:09;;;;;;;;;;;;;;;20.71;32.39;93254.13;5008182;28;19939;-54
2023/02/23 12:30:37;;;;;;;;;;;;;;;21.20;33.08;93249.03;5007730;28;19913;-53
2023/02/23 12:33:25;;;;;;;;;;;;;;;20.97;32.51;93247.09;5012277;28;19920;-53
2023/02/23 12:35:51;;;;;;;;;;;;;;;20.48;34.70;93250.75;5007597;28;19925;-54
2023/02/23 12:38:26;;;;;;;;;;;;;;;20.49;34.17;93249.41;5007652;28;19917;-55
2023/02/23 12:40:55;;;;;;;;;;;;;;;19.38;35.75;93246.63;5007569;28;19917;-54
2023/02/23 12:43:29;;;;;;;;;;;;;;;19.90;35.57;93254.56;5006393;28;20452;-53
2023/02/23 12:46:01;;;;;;;;;;;;;;;19.65;35.19;93249.63;5007836;28;19936;-53
2023/02/23 12:48:35;;;;;;;;;;;;;;;19.41;35.99;93256.63;5007610;28;19917;-54
2023/02/23 12:51:00;;;;;;;;;;;;;;;18.69;37.50;93252.28;5006623;28;19913;-54
2023/02/23 12:53:35;;;;;;;;;;;;;;;18.44;37.94;93257.69;5007553;28;20294;-53
2023/02/23 12:56:03;;;;;;;;;;;;;;;18.44;38.04;93252.84;5007791;28;19988;-54
2023/02/23 12:58:31;;;;;;;;;;;;;;;18.31;39.41;93247.81;5008736;28;19926;-54
2023/02/23 13:01:05;;;;;;;;;;;;;;;18.08;39.43;93251.28;5006356;28;19941;-53
2023/02/23 13:03:49;;;;;;;;;;;;;;;17.78;40.21;93248.63;5007272;28;19924;-51
2023/02/23 13:06:17;;;;;;;;;;;;;;;17.69;40.67;93264.13;5007437;28;19922;-54
2023/02/23 13:08:48;;;;;;;;;;;;;;;17.53;40.39;93268.66;5007332;28;19921;-53
2023/02/23 13:11:22;;;;;;;;;;;;;;;17.56;41.73;93258.34;5006492;28;19967;-54
2023/02/23 13:13:59;;;;;;;;;;;;;;;17.13;40.65;93268.75;5007116;28;19999;-55
2023/02/23 13:16:31;;;;;;;;;;;;;;;17.16;41.59;93256.41;5024960;28;20000;-55
2023/02/23 13:18:59;;;;;;;;;;;;;;;16.60;41.53;93264.47;5027096;28;20302;-55
2023/02/23 13:21:30;;;;;;;;;;;;;;;16.26;42.35;93264.84;5026906;28;19917;-54
2023/02/23 13:24:00;;;;;;;;;;;;;;;16.12;43.42;93270.16;5027301;28;20009;-54
2023/02/23 13:26:34;;;;;;;;;;;;;;;16.04;43.56;93266.06;5025446;28;20026;-55
2023/02/23 13:29:18;;;;;;;;;;;;;;;15.98;44.07;93266.38;5027015;28;20422;-54
2023/02/23 13:31:43;;;;;;;;;;;;;;;15.79;44.24;93267.09;5023151;28;20344;-53
2023/02/23 13:34:10;;;;;;;;;;;;;;;15.52;44.63;93268.59;5010339;28;19917;-54
2023/02/23 13:36:36;;;;;;;;;;;;;;;15.91;43.39;93275.59;5009634;28;20734;-53
2023/02/23 13:39:20;;;;;;;;;;;;;;;15.89;42.58;93281.03;5009753;28;19913;-53
2023/02/23 13:41:56;;;;;;;;;;;;;;;15.57;43.13;93281.50;5010788;28;19923;-54
2023/02/23 13:44:27;;;;;;;;;;;;;;;15.70;43.99;93275.47;5010638;28;19920;-53
2023/02/23 13:47:00;;;;;;;;;;;;;;;15.38;44.78;93278.66;5010747;28;19972;-52
2023/02/23 13:49:31;;;;;;;;;;;;;;;15.03;44.29;93278.16;5009278;28;19921;-53
2023/02/23 13:51:58;;;;;;;;;;;;;;;14.90;45.87;93279.28;5010556;28;20412;-54
2023/02/23 13:54:25;;;;;;;;;;;;;;;15.25;44.95;93288.16;5010462;28;19917;-54
2023/02/23 13:56:54;;;;;;;;;;;;;;;15.17;45.44;93284.78;5030558;28;20313;-54
2023/02/23 13:59:20;;;;;;;;;;;;;;;14.89;45.99;93291.75;5025750;28;19992;-53
2023/02/23 14:01:47;;;;;;;;;;;;;;;15.37;43.85;93291.84;5010129;28;19917;-54
2023/02/23 14:04:13;;;;;;;;;;;;;;;15.11;45.82;93284.34;5009227;28;19925;-55
2023/02/23 14:06:40;;;;;;;;;;;;;;;15.02;43.26;93298.94;5009183;28;20056;-55
2023/02/23 14:09:10;;;;;;;;;;;;;;;15.17;43.31;93301.47;5008472;28;20388;-55
2023/02/23 14:11:35;;;;;;;;;;;;;;;15.40;41.97;93303.84;5008921;28;20461;-54
2023/02/23 14:14:01;;;;;;;;;;;;;;;15.41;41.94;93308.09;5010297;28;20020;-53